Latest Coastal Weather Observations for Wyndham Airport

IDW60701

Issued at 3:22 am WST Friday 4 September 2015 (issued every 10 minutes, with the page automatically refreshed every 10 minutes)

About coastal observations | Map of coastal stations | Coastal observations for WA | Marine services | Other Formats
Station Details ID: 001006 Name: WYNDHAM AERO Lat: -15.51 Lon: 128.15 Height: 3.8 m
Data from the previous 72 hours. | See also: Recent months at Wyndham Airport
Date/Time
WST
Temp

°C
Wind Pressure Rain
since 9am
mm
Weather Cloud Vis
km
Sea
Height
m
Swell
Dir
 
Speed
knots
Gust
knots
hPa Trend Height
m
Period
s
Dir
04/03:00am 23.2 WSW 3 5 1013.9 - 0.0 - - - - - - -
04/02:30am 24.5 SSW 5 9 1013.4 - 0.0 - - - - - - -
04/02:00am 22.8 NW 1 4 1013.6 - 0.0 - - - - - - -
04/01:30am 22.2 W 1 3 1013.6 - 0.0 - - - - - - -
04/01:00am 20.9 WSW 3 4 1013.8 - 0.0 - - - - - - -
04/12:30am 21.1 NW 4 5 1014.0 - 0.0 - - - - - - -
04/12:00am 20.2 CALM 0 0 1014.5 - 0.0 - - - - - - -
 
Date/Time
WST
Temp

°C
Wind Pressure Rain
since 9am
mm
Weather Cloud Vis
km
Sea
Height
m
Swell
Dir
 
Speed
knots
Gust
knots
hPa Trend Height
m
Period
s
Dir
03/11:30pm 21.4 CALM 0 0 1014.8 - 0.0 - - - - - - -
03/11:00pm 21.8 ENE 1 7 1015.1 - 0.0 - - - - - - -
03/10:30pm 22.2 CALM 0 0 1015.2 - 0.0 - - - - - - -
03/10:00pm 23.4 CALM 0 0 1015.3 - 0.0 - - - - - - -
03/09:30pm 24.2 CALM 0 0 1015.3 - 0.0 - - - - - - -
03/09:00pm 27.6 CALM 0 0 1015.2 - 0.0 - - - - - - -
03/08:30pm 27.3 CALM 0 0 1015.2 - 0.0 - - - - - - -
03/08:00pm 26.8 SSE 4 7 1015.0 - 0.0 - - - - - - -
03/07:30pm 28.4 WSW 3 4 1014.6 - 0.0 - - - - - - -
03/07:00pm 29.6 SSW 3 5 1014.3 - 0.0 - - - - - - -
03/06:30pm 31.1 N 8 10 1013.8 - 0.0 - - - - - - -
03/06:00pm 31.6 N 9 11 1013.4 - 0.0 - - - - - - -
03/05:30pm 32.2 N 11 14 1013.0 - 0.0 - - - - - - -
03/05:00pm 33.5 N 10 14 1012.7 - 0.0 - - - - - - -
03/04:30pm 34.7 N 11 14 1012.5 - 0.0 - - - - - - -
03/04:00pm 36.0 N 8 10 1012.4 - 0.0 - - - - - - -
03/03:30pm 36.9 E 7 14 1012.2 - 0.0 - - - - - - -
03/03:00pm 37.1 ESE 7 11 1012.1 - 0.0 - - - - - - -
03/02:30pm 36.8 NE 5 13 1012.3 - 0.0 - - - - - - -
03/02:00pm 37.7 ESE 9 14 1012.5 - 0.0 - - - - - - -
03/01:30pm 37.0 NE 8 13 1012.8 - 0.0 - - - - - - -
03/01:00pm 37.1 ENE 9 13 1013.3 - 0.0 - - - - - - -
03/12:30pm 36.6 E 13 19 1013.7 - 0.0 - - - - - - -
03/12:00pm 37.0 ENE 11 19 1014.2 - 0.0 - - - - - - -
03/11:30am 36.8 E 13 19 1014.6 - 0.0 - - - - - - -
03/11:00am 35.4 E 11 16 1015.2 - 0.0 - - - - - - -
03/10:30am 35.3 ESE 12 19 1015.8 - 0.0 - - - - - - -
03/10:00am 34.6 ESE 13 19 1016.3 - 0.0 - - - - - - -
03/09:30am 34.0 ESE 15 21 1016.5 - 0.0 - - - - - - -
03/09:00am 33.1 E 17 22 1016.4 - 0.0 - - - - - - -
03/08:30am 32.6 ESE 17 23 1016.4 - 0.0 - - - - - - -
03/08:00am 30.7 SE 12 16 1016.4 - 0.0 - - - - - - -
03/07:30am 28.2 CALM 0 0 1016.4 - 0.0 - - - - - - -
03/07:00am 25.5 SSW 3 4 1016.2 - 0.0 - - - - - - -
03/06:30am 24.5 WSW 2 4 1015.7 - 0.0 - - - - - - -
03/06:00am 23.0 CALM 0 0 1015.3 - 0.0 - - - - - - -
03/05:30am 20.4 NW 1 3 1014.8 - 0.0 - - - - - - -
03/05:00am 20.8 CALM 0 0 1014.4 - 0.0 - - - - - - -
03/04:30am 21.9 E 6 9 1014.0 - 0.0 - - - - - - -
03/04:00am 22.0 E 6 9 1013.9 - 0.0 - - - - - - -
03/03:30am 22.2 CALM 0 0 1013.4 - 0.0 - - - - - - -
03/03:00am 21.5 CALM 0 0 1013.6 - 0.0 - - - - - - -
03/02:30am 21.5 CALM 0 0 1013.6 - 0.0 - - - - - - -
03/02:00am 21.9 E 1 4 1013.6 - 0.0 - - - - - - -
03/01:30am 22.2 ESE 5 6 1013.8 - 0.0 - - - - - - -
03/01:00am 21.3 CALM 0 5 1014.0 - 0.0 - - - - - - -
03/12:30am 22.6 SSE 1 3 1014.0 - 0.0 - - - - - - -
03/12:00am 22.6 SE 4 6 1014.3 - 0.0 - - - - - - -
 
Date/Time
WST
Temp

°C
Wind Pressure Rain
since 9am
mm
Weather Cloud Vis
km
Sea
Height
m
Swell
Dir
 
Speed
knots
Gust
knots
hPa Trend Height
m
Period
s
Dir
02/11:30pm 23.5 E 4 5 1014.8 - 0.0 - - - - - - -
02/11:00pm 23.7 ESE 6 6 1014.9 - 0.0 - - - - - - -
02/10:30pm 24.2 CALM 0 0 1014.7 - 0.0 - - - - - - -
02/10:00pm 25.1 E 4 7 1014.8 - 0.0 - - - - - - -
02/09:30pm 27.2 NNW 3 4 1014.6 - 0.0 - - - - - - -
02/09:00pm 27.9 NNE 5 10 1014.6 - 0.0 - - - - - - -
02/08:30pm 28.5 S 4 6 1014.1 - 0.0 - - - - - - -
02/08:00pm 30.1 N 8 11 1013.6 - 0.0 - - - - - - -
02/07:30pm 30.0 N 12 17 1013.2 - 0.0 - - - - - - -
02/07:00pm 29.9 NNE 12 16 1012.8 - 0.0 - - - - - - -
02/06:30pm 30.5 N 14 20 1012.2 - 0.0 - - - - - - -
02/06:00pm 30.9 N 14 18 1011.7 - 0.0 - - - - - - -
02/05:30pm 31.8 N 15 19 1011.4 - 0.0 - - - - - - -
02/05:25pm 32.1 N 14 19 1011.3 - 0.0 - - - - - - -
02/05:00pm 35.2 WNW 7 9 1011.0 - 0.0 - - - - - - -
02/04:30pm 36.0 WNW 8 10 1010.9 - 0.0 - - - - - - -
02/04:00pm 36.5 W 7 10 1010.7 - 0.0 - - - - - - -
02/03:30pm 36.5 W 8 13 1010.6 - 0.0 - - - - - - -
02/03:00pm 36.4 NW 7 11 1010.6 - 0.0 - - - - - - -
02/02:30pm 36.6 WNW 7 12 1010.7 - 0.0 - - - - - - -
02/02:00pm 36.7 W 8 15 1010.8 - 0.0 - - - - - - -
02/01:30pm 37.0 WNW 9 13 1011.2 - 0.0 - - - - - - -
02/01:00pm 36.2 W 9 14 1011.6 - 0.0 - - - - - - -
02/12:30pm 36.1 NNW 8 12 1012.0 - 0.0 - - - - - - -
02/12:00pm 36.3 W 7 10 1012.3 - 0.0 - - - - - - -
02/11:30am 35.7 SW 7 12 1012.8 - 0.0 - - - - - - -
02/11:00am 34.7 WSW 7 13 1013.5 - 0.0 - - - - - - -
02/10:30am 33.9 WNW 3 7 1014.1 - 0.0 - - - - - - -
02/10:00am 33.5 WNW 5 9 1014.6 - 0.0 - - - - - - -
02/09:30am 32.3 W 4 6 1015.0 - 0.0 - - - - - - -
02/09:00am 31.6 WSW 4 7 1015.3 - 0.0 - - - - - - -
02/08:30am 30.9 WSW 6 8 1015.3 - 0.0 - - - - - - -
02/08:00am 29.5 WSW 6 8 1015.3 - 0.0 - - - - - - -
02/07:30am 27.9 WSW 4 7 1015.1 - 0.0 - - - - - - -
02/07:00am 26.3 WSW 1 4 1014.8 - 0.0 - - - - - - -
02/06:30am 25.1 CALM 0 0 1014.6 - 0.0 - - - - - - -
02/06:00am 22.7 CALM 0 0 1014.4 - 0.0 - - - - - - -
02/05:30am 22.9 S 1 3 1013.9 - 0.0 - - - - - - -
02/05:00am 22.1 WNW 3 6 1013.5 - 0.0 - - - - - - -
02/04:30am 23.1 WNW 2 5 1013.1 - 0.0 - - - - - - -
02/04:00am 23.1 NNW 6 8 1012.8 - 0.0 - - - - - - -
02/03:30am 23.5 SW 4 5 1012.9 - 0.0 - - - - - - -
02/03:00am 25.0 W 8 9 1012.9 - 0.0 - - - - - - -
02/02:30am 25.4 WNW 8 9 1012.8 - 0.0 - - - - - - -
02/02:00am 25.0 WNW 8 9 1012.8 - 0.0 - - - - - - -
02/01:30am 25.9 WSW 7 9 1012.8 - 0.0 - - - - - - -
02/01:00am 26.0 NW 8 9 1013.0 - 0.0 - - - - - - -
02/12:30am 27.3 WNW 9 11 1013.0 - 0.0 - - - - - - -
02/12:00am 28.4 NW 10 13 1013.1 - 0.0 - - - - - - -
 
Date/Time
WST
Temp

°C
Wind Pressure Rain
since 9am
mm
Weather Cloud Vis
km
Sea
Height
m
Swell
Dir
 
Speed
knots
Gust
knots
hPa Trend Height
m
Period
s
Dir
01/11:30pm 28.5 NNW 9 13 1013.3 - 0.0 - - - - - - -
01/11:00pm 28.6 NW 8 11 1013.6 - 0.0 - - - - - - -
01/10:30pm 28.9 NW 7 9 1013.6 - 0.0 - - - - - - -
01/10:00pm 29.1 NNW 8 12 1013.2 - 0.0 - - - - - - -
01/09:30pm 28.6 NNW 8 11 1013.1 - 0.0 - - - - - - -
01/09:00pm 28.7 N 10 13 1013.1 - 0.0 - - - - - - -
01/08:30pm 28.6 N 9 13 1012.9 - 0.0 - - - - - - -
01/08:00pm 28.8 N 10 14 1012.4 - 0.0 - - - - - - -
01/07:30pm 29.0 N 11 17 1012.1 - 0.0 - - - - - - -
01/07:00pm 28.8 N 11 17 1011.8 - 0.0 - - - - - - -
01/06:30pm 28.8 N 12 18 1011.2 - 0.0 - - - - - - -
01/06:00pm 29.2 N 14 21 1010.6 - 0.0 - - - - - - -
01/05:30pm 29.6 N 16 24 1010.2 - 0.0 - - - - - - -
01/05:00pm 30.5 N 17 23 1009.9 - 0.0 - - - - - - -
01/04:30pm 31.1 N 18 25 1009.7 - 0.0 - - - - - - -
01/04:00pm 32.2 N 19 25 1009.6 - 0.0 - - - - - - -
01/03:30pm 33.8 N 16 22 1009.4 - 0.0 - - - - - - -
01/03:00pm 34.6 N 14 19 1009.4 - 0.0 - - - - - - -
01/02:30pm 35.6 N 14 19 1009.4 - 0.0 - - - - - - -
01/02:00pm 36.4 NNW 11 17 1009.6 - 0.0 - - - - - - -
01/01:30pm 36.1 NNW 6 12 1009.8 - 0.0 - - - - - - -
01/01:00pm 35.8 NW 8 14 1010.5 - 0.0 - - - - - - -
01/12:30pm 35.9 NW 9 13 1011.0 - 0.0 - - - - - - -
01/12:00pm 35.3 WNW 7 12 1011.5 - 0.0 - - - - - - -
01/11:30am 35.1 W 8 12 1012.0 - 0.0 - - - - - - -
01/11:00am 34.4 WSW 7 12 1012.5 - 0.0 - - - - - - -
01/10:30am 33.7 WSW 9 12 1012.9 - 0.0 - - - - - - -
01/10:00am 33.6 WSW 8 11 1013.3 - 0.0 - - - - - - -
01/09:30am 32.5 W 6 10 1013.6 - 0.0 - - - - - - -
01/09:00am 31.4 W 6 9 1013.8 - 0.0 - - - - - - -
01/08:30am 31.2 W 9 12 1013.9 - 0.0 - - - - - - -
01/08:00am 30.3 W 9 11 1014.0 - 0.0 - - - - - - -
01/07:30am 29.6 W 7 11 1013.7 - 0.0 - - - - - - -
01/07:00am 28.3 WNW 7 9 1013.5 - 0.0 - - - - - - -
01/06:30am 27.2 WNW 7 8 1013.1 - 0.0 - - - - - - -
01/06:00am 25.3 WNW 7 8 1012.7 - 0.0 - - - - - - -
01/05:30am 24.4 WNW 6 8 1012.3 - 0.0 - - - - - - -
01/05:00am 23.0 NE 1 3 1012.0 - 0.0 - - - - - - -
01/04:30am 22.5 E 5 5 1011.8 - 0.0 - - - - - - -
01/04:00am 22.9 SSW 1 5 1011.7 - 0.0 - - - - - - -
01/03:30am 23.6 CALM 0 0 1011.5 - 0.0 - - - - - - -

Other Formats:

Comma delimited format used in spreadsheet applications
http://www.bom.gov.au/fwo/IDW60701/IDW60701.95214.axf

JavaScript Object Notation format (JSON) in row-major order
http://www.bom.gov.au/fwo/IDW60701/IDW60701.95214.json